Time,TemperatureF,DewpointF,PressureIn,WindDirection,WindDirectionDegrees,WindSpeedMPH,WindSpeedGustMPH,Humidity,HourlyPrecipIn,Conditions,Clouds,dailyrainin,SolarRadiationWatts/m^2,SoftwareType,DateUTC
2013-09-23 00:01:00,47.7,43.7,30.06,ENE,68,0.0,0.9,86,0.00,CLR,,0.00,0.0,WeatherDisplay:10.37,2013-09-23 04:01:00,
2013-09-23 00:02:00,47.5,43.5,30.06,ENE,68,1.6,0.0,86,0.00,CLR,,0.00,0.0,WeatherDisplay:10.37,2013-09-23 04:02:00,
2013-09-23 00:07:00,47.3,43.6,30.06,ESE,112,1.2,1.2,87,0.00,CLR,,0.00,0.0,WeatherDisplay:10.37,2013-09-23 04:07:00,
2013-09-23 00:12:00,47.1,43.1,30.06,ENE,68,1.2,0.0,86,0.00,CLR,,0.00,0.0,WeatherDisplay:10.37,2013-09-23 04:12:00,
2013-09-23 00:17:00,46.9,43.0,30.06,ENE,68,0.0,0.0,86,0.00,CLR,,0.00,0.0,WeatherDisplay:10.37,2013-09-23 04:17:00,
2013-09-23 00:22:00,46.8,42.8,30.06,ENE,68,2.3,2.3,86,0.00,CLR,,0.00,0.0,WeatherDisplay:10.37,2013-09-23 04:22:00,
2013-09-23 00:27:00,46.6,43.2,30.06,ENE,68,1.2,0.0,88,0.00,CLR,,0.00,0.0,WeatherDisplay:10.37,2013-09-23 04:27:00,
2013-09-23 00:32:00,46.4,43.0,30.06,ENE,68,0.0,0.0,88,0.00,CLR,,0.00,0.0,WeatherDisplay:10.37,2013-09-23 04:32:00,
2013-09-23 00:37:00,46.2,42.9,30.03,ESE,112,1.2,0.0,88,0.00,CLR,,0.00,0.0,WeatherDisplay:10.37,2013-09-23 04:37:00,
2013-09-23 00:42:00,46.2,43.2,30.03,ENE,68,1.2,0.0,89,0.00,CLR,,0.00,0.0,WeatherDisplay:10.37,2013-09-23 04:42:00,
2013-09-23 00:47:00,46.0,43.0,30.03,ENE,68,2.3,2.3,89,0.00,CLR,,0.00,0.0,WeatherDisplay:10.37,2013-09-23 04:47:00,
2013-09-23 00:52:00,46.0,43.3,30.06,ENE,68,1.4,1.4,90,0.00,CLR,,0.00,0.0,WeatherDisplay:10.37,2013-09-23 04:52:00,
2013-09-23 00:57:00,46.2,43.7,30.06,ESE,112,2.3,2.3,91,0.00,CLR,,0.00,0.0,WeatherDisplay:10.37,2013-09-23 04:57:00,
2013-09-23 01:02:00,45.9,43.1,30.06,ESE,112,0.0,0.0,90,0.00,CLR,,0.00,0.0,WeatherDisplay:10.37,2013-09-23 05:02:00,
2013-09-23 01:07:00,45.9,43.1,30.06,ESE,112,0.0,0.0,90,0.00,CLR,,0.00,0.0,WeatherDisplay:10.37,2013-09-23 05:07:00,
2013-09-23 01:12:00,45.9,43.4,30.06,East,90,0.0,0.0,91,0.00,CLR,,0.00,0.0,WeatherDisplay:10.37,2013-09-23 05:12:00,
2013-09-23 01:17:00,45.5,43.0,30.06,East,90,0.0,0.0,91,0.00,CLR,,0.00,0.0,WeatherDisplay:10.37,2013-09-23 05:17:00,
2013-09-23 01:22:00,45.5,43.3,30.06,East,90,0.0,0.0,92,0.00,CLR,,0.00,0.0,WeatherDisplay:10.37,2013-09-23 05:22:00,
2013-09-23 01:27:00,45.1,42.7,30.06,East,90,0.0,0.0,91,0.00,CLR,,0.00,0.0,WeatherDisplay:10.37,2013-09-23 05:27:00,
2013-09-23 01:32:00,44.8,42.3,30.06,ENE,68,0.0,0.0,91,0.00,CLR,,0.00,0.0,WeatherDisplay:10.37,2013-09-23 05:32:00,
2013-09-23 01:37:00,44.6,42.4,30.06,ENE,68,0.0,0.0,92,0.00,CLR,,0.00,0.0,WeatherDisplay:10.37,2013-09-23 05:37:00,
2013-09-23 01:42:00,44.6,42.4,30.06,ENE,68,0.0,0.0,92,0.00,CLR,,0.00,0.0,WeatherDisplay:10.37,2013-09-23 05:42:00,
2013-09-23 01:47:00,44.6,42.7,30.06,ESE,112,2.3,2.3,93,0.00,CLR,,0.00,0.0,WeatherDisplay:10.37,2013-09-23 05:47:00,
2013-09-23 01:52:00,44.8,43.2,30.06,ESE,112,1.2,0.0,94,0.00,CLR,,0.00,0.0,WeatherDisplay:10.37,2013-09-23 05:52:00,
2013-09-23 01:57:00,44.6,42.7,30.06,East,90,0.0,0.0,93,0.00,CLR,,0.00,0.0,WeatherDisplay:10.37,2013-09-23 05:57:00,
2013-09-23 02:02:00,44.2,42.3,30.06,ENE,68,0.0,0.0,93,0.00,CLR,,0.00,0.0,WeatherDisplay:10.37,2013-09-23 06:02:00,
2013-09-23 02:07:00,44.1,42.2,30.06,ENE,68,0.0,0.0,93,0.00,CLR,,0.00,0.0,WeatherDisplay:10.37,2013-09-23 06:07:00,
2013-09-23 02:12:00,44.1,42.2,30.06,ENE,68,0.0,0.0,93,0.00,CLR,,0.00,0.0,WeatherDisplay:10.37,2013-09-23 06:12:00,
2013-09-23 02:18:00,43.9,42.3,30.06,ESE,112,0.0,0.0,94,0.00,CLR,,0.00,0.0,WeatherDisplay:10.37,2013-09-23 06:18:00,
2013-09-23 02:23:00,43.7,42.1,30.06,ESE,112,0.0,0.0,94,0.00,CLR,,0.00,0.0,WeatherDisplay:10.37,2013-09-23 06:23:00,
2013-09-23 02:28:00,43.9,42.0,30.06,ESE,112,0.0,0.0,93,0.00,CLR,,0.00,0.0,WeatherDisplay:10.37,2013-09-23 06:28:00,
2013-09-23 02:33:00,44.2,42.3,30.06,ESE,112,0.0,0.0,93,0.00,CLR,,0.00,0.0,WeatherDisplay:10.37,2013-09-23 06:33:00,
2013-09-23 02:38:00,44.1,42.7,30.06,ENE,68,1.2,0.0,95,0.00,CLR,,0.00,0.0,WeatherDisplay:10.37,2013-09-23 06:38:00,
2013-09-23 02:43:00,44.1,42.4,30.06,ENE,68,2.3,2.3,94,0.00,CLR,,0.00,0.0,WeatherDisplay:10.37,2013-09-23 06:43:00,
2013-09-23 02:48:00,44.2,42.9,30.06,ESE,112,0.0,0.0,95,0.00,CLR,,0.00,0.0,WeatherDisplay:10.37,2013-09-23 06:48:00,
2013-09-23 02:53:00,44.2,42.9,30.06,ENE,68,0.0,0.0,95,0.00,CLR,,0.00,0.0,WeatherDisplay:10.37,2013-09-23 06:53:00,
2013-09-23 02:58:00,44.1,42.7,30.06,ENE,68,2.2,2.2,95,0.00,CLR,,0.00,0.0,WeatherDisplay:10.37,2013-09-23 06:58:00,
2013-09-23 03:03:00,44.4,43.1,30.06,East,90,0.0,0.0,95,0.00,CLR,,0.00,0.0,WeatherDisplay:10.37,2013-09-23 07:03:00,
2013-09-23 03:08:00,44.2,42.6,30.06,ENE,68,2.2,0.0,94,0.00,CLR,,0.00,0.0,WeatherDisplay:10.37,2013-09-23 07:08:00,
2013-09-23 03:13:00,44.4,43.1,30.06,ENE,68,2.3,2.3,95,0.00,CLR,,0.00,0.0,WeatherDisplay:10.37,2013-09-23 07:13:00,
2013-09-23 03:18:00,44.4,43.1,30.06,ENE,68,1.2,1.2,95,0.00,CLR,,0.00,0.0,WeatherDisplay:10.37,2013-09-23 07:18:00,
2013-09-23 03:23:00,44.6,43.0,30.06,NNE,22,1.2,1.2,94,0.00,CLR,,0.00,0.0,WeatherDisplay:10.37,2013-09-23 07:23:00,
2013-09-23 03:28:00,44.6,43.0,30.06,ENE,68,2.3,2.3,94,0.00,CLR,,0.00,0.0,WeatherDisplay:10.37,2013-09-23 07:28:00,
2013-09-23 03:33:00,44.6,43.0,30.06,ENE,68,2.3,2.3,94,0.00,CLR,,0.00,0.0,WeatherDisplay:10.37,2013-09-23 07:33:00,
2013-09-23 03:38:00,44.8,43.4,30.06,ESE,112,3.5,3.5,95,0.00,CLR,,0.00,0.0,WeatherDisplay:10.37,2013-09-23 07:38:00,
2013-09-23 03:43:00,45.0,43.3,30.06,ENE,68,2.3,2.3,94,0.00,CLR,,0.00,0.0,WeatherDisplay:10.37,2013-09-23 07:43:00,
2013-09-23 03:48:00,45.0,43.3,30.06,ENE,68,3.3,3.3,94,0.00,CLR,,0.00,0.0,WeatherDisplay:10.37,2013-09-23 07:48:00,
2013-09-23 03:53:00,45.0,43.3,30.06,ENE,68,1.2,1.6,94,0.00,CLR,,0.00,0.0,WeatherDisplay:10.37,2013-09-23 07:53:00,
2013-09-23 03:58:00,45.0,43.1,30.06,ENE,68,2.3,2.3,93,0.00,CLR,,0.00,0.0,WeatherDisplay:10.37,2013-09-23 07:58:00,
2013-09-23 04:03:00,44.8,42.9,30.06,ENE,68,1.2,1.4,93,0.00,CLR,,0.00,0.0,WeatherDisplay:10.37,2013-09-23 08:03:00,
2013-09-23 04:08:00,44.8,42.9,30.06,ENE,68,2.3,0.0,93,0.00,CLR,,0.00,0.0,WeatherDisplay:10.37,2013-09-23 08:08:00,
2013-09-23 04:13:00,44.8,42.9,30.06,ENE,68,2.3,2.3,93,0.00,CLR,,0.00,0.0,WeatherDisplay:10.37,2013-09-23 08:13:00,
2013-09-23 04:18:00,44.8,42.9,30.06,ENE,68,2.4,2.4,93,0.00,CLR,,0.00,0.0,WeatherDisplay:10.37,2013-09-23 08:18:00,
2013-09-23 04:23:00,44.8,42.9,30.06,ENE,68,2.4,2.4,93,0.00,CLR,,0.00,0.0,WeatherDisplay:10.37,2013-09-23 08:23:00,
2013-09-23 04:28:00,45.0,43.1,30.06,ENE,68,2.3,2.3,93,0.00,CLR,,0.00,0.0,WeatherDisplay:10.37,2013-09-23 08:28:00,
2013-09-23 04:33:00,45.0,43.1,30.06,ESE,112,2.3,2.3,93,0.00,CLR,,0.00,0.0,WeatherDisplay:10.37,2013-09-23 08:33:00,
2013-09-23 04:38:00,45.1,43.2,30.06,ENE,68,3.5,3.5,93,0.00,CLR,,0.00,0.0,WeatherDisplay:10.37,2013-09-23 08:38:00,
2013-09-23 04:43:00,45.1,43.2,30.06,ESE,112,2.4,2.4,93,0.00,CLR,,0.00,0.0,WeatherDisplay:10.37,2013-09-23 08:43:00,
2013-09-23 04:48:00,45.1,43.5,30.06,ENE,68,2.3,2.3,94,0.00,CLR,,0.00,0.0,WeatherDisplay:10.37,2013-09-23 08:48:00,
2013-09-23 04:53:00,45.1,43.5,30.06,ENE,68,1.2,1.2,94,0.00,CLR,,0.00,0.0,WeatherDisplay:10.37,2013-09-23 08:53:00,
2013-09-23 04:58:00,44.8,43.2,30.06,ENE,68,2.3,2.3,94,0.00,CLR,,0.00,0.0,WeatherDisplay:10.37,2013-09-23 08:58:00,
2013-09-23 05:03:00,44.8,43.2,30.06,ENE,68,2.0,2.0,94,0.00,CLR,,0.00,0.0,WeatherDisplay:10.37,2013-09-23 09:03:00,
2013-09-23 05:08:00,44.6,43.0,30.06,ENE,68,0.0,0.0,94,0.00,CLR,,0.00,0.0,WeatherDisplay:10.37,2013-09-23 09:08:00,
2013-09-23 05:13:00,44.4,43.1,30.06,ENE,68,2.3,2.3,95,0.00,CLR,,0.00,0.0,WeatherDisplay:10.37,2013-09-23 09:13:00,
2013-09-23 05:18:00,44.4,43.1,30.06,ENE,68,3.5,3.5,95,0.00,CLR,,0.00,0.0,WeatherDisplay:10.37,2013-09-23 09:18:00,
2013-09-23 05:23:00,44.6,43.3,30.06,ENE,68,2.3,2.3,95,0.00,CLR,,0.00,0.0,WeatherDisplay:10.37,2013-09-23 09:23:00,
2013-09-23 05:28:00,44.6,43.5,30.06,East,90,2.3,2.3,96,0.00,CLR,,0.00,0.0,WeatherDisplay:10.37,2013-09-23 09:28:00,
2013-09-23 05:33:00,44.6,43.5,30.06,ESE,112,2.3,2.3,96,0.00,CLR,,0.00,0.0,WeatherDisplay:10.37,2013-09-23 09:33:00,
2013-09-23 05:38:00,44.8,43.7,30.06,ESE,112,2.3,2.3,96,0.00,CLR,,0.00,0.0,WeatherDisplay:10.37,2013-09-23 09:38:00,
2013-09-23 05:43:00,44.6,43.5,30.06,ENE,68,2.3,0.0,96,0.00,CLR,,0.00,0.0,WeatherDisplay:10.37,2013-09-23 09:43:00,
2013-09-23 05:48:00,44.6,43.5,30.06,East,90,3.5,3.5,96,0.00,CLR,,0.00,0.0,WeatherDisplay:10.37,2013-09-23 09:48:00,
2013-09-23 05:53:00,44.8,44.0,30.06,East,90,2.3,2.3,97,0.00,CLR,,0.00,0.0,WeatherDisplay:10.37,2013-09-23 09:53:00,
2013-09-23 05:58:00,44.6,43.8,30.06,ESE,112,1.2,1.2,97,0.00,CLR,,0.00,0.0,WeatherDisplay:10.37,2013-09-23 09:58:00,
2013-09-23 06:04:00,44.6,43.8,30.06,ESE,112,2.3,2.3,97,0.00,CLR,,0.00,0.0,WeatherDisplay:10.37,2013-09-23 10:04:00,
2013-09-23 06:09:00,44.6,43.8,30.06,ESE,112,2.3,2.3,97,0.00,CLR,,0.00,0.0,WeatherDisplay:10.37,2013-09-23 10:09:00,
2013-09-23 06:14:00,44.4,43.6,30.06,ESE,112,2.3,2.3,97,0.00,CLR,,0.00,0.0,WeatherDisplay:10.37,2013-09-23 10:14:00,
2013-09-23 06:19:00,44.4,43.6,30.06,ESE,112,2.3,2.3,97,0.00,CLR,,0.00,0.0,WeatherDisplay:10.37,2013-09-23 10:19:00,
2013-09-23 06:24:00,44.4,43.6,30.06,ENE,68,2.3,2.3,97,0.00,CLR,,0.00,0.0,WeatherDisplay:10.37,2013-09-23 10:24:00,
2013-09-23 06:29:00,44.6,43.8,30.06,East,90,2.6,2.6,97,0.00,CLR,,0.00,0.0,WeatherDisplay:10.37,2013-09-23 10:29:00,
2013-09-23 06:34:00,44.8,44.0,30.06,ESE,112,2.3,2.3,97,0.00,CLR,,0.00,0.0,WeatherDisplay:10.37,2013-09-23 10:34:00,
2013-09-23 06:39:00,44.8,44.0,30.06,ESE,112,2.6,2.6,97,0.00,CLR,,0.00,0.0,WeatherDisplay:10.37,2013-09-23 10:39:00,
2013-09-23 06:44:00,44.8,44.0,30.06,ENE,68,2.3,2.3,97,0.00,CLR,,0.00,0.0,WeatherDisplay:10.37,2013-09-23 10:44:00,
2013-09-23 06:49:00,45.0,44.4,30.06,ENE,68,2.3,2.3,98,0.00,CLR,,0.00,0.0,WeatherDisplay:10.37,2013-09-23 10:49:00,
2013-09-23 06:54:00,45.0,44.4,30.06,East,90,2.9,3.3,98,0.00,CLR,,0.00,0.0,WeatherDisplay:10.37,2013-09-23 10:54:00,
2013-09-23 06:59:00,44.8,44.3,30.06,ESE,112,2.3,2.3,98,0.00,CLR,,0.00,0.0,WeatherDisplay:10.37,2013-09-23 10:59:00,
2013-09-23 07:04:00,44.4,43.9,30.06,ESE,112,1.2,0.0,98,0.00,CLR,,0.00,0.0,WeatherDisplay:10.37,2013-09-23 11:04:00,
2013-09-23 07:09:00,44.2,43.7,30.06,ESE,112,2.3,2.3,98,0.00,CLR,,0.00,0.0,WeatherDisplay:10.37,2013-09-23 11:09:00,
2013-09-23 07:14:00,44.2,43.7,30.06,ENE,68,2.3,2.3,98,0.00,CLR,,0.00,0.0,WeatherDisplay:10.37,2013-09-23 11:14:00,
2013-09-23 07:19:00,44.2,43.7,30.06,East,90,2.3,2.3,98,0.00,CLR,,0.00,0.0,WeatherDisplay:10.37,2013-09-23 11:19:00,
2013-09-23 07:24:00,44.2,43.7,30.06,ENE,68,2.3,2.3,98,0.00,CLR,,0.00,0.0,WeatherDisplay:10.37,2013-09-23 11:24:00,
2013-09-23 07:29:00,44.2,43.7,30.06,ENE,68,2.3,0.0,98,0.00,CLR,,0.00,0.0,WeatherDisplay:10.37,2013-09-23 11:29:00,
2013-09-23 07:34:00,44.2,43.7,30.06,ESE,112,1.4,0.0,98,0.00,CLR,,0.00,0.0,WeatherDisplay:10.37,2013-09-23 11:34:00,
2013-09-23 07:39:00,44.4,43.9,30.09,ENE,68,2.3,2.3,98,0.00,CLR,,0.00,0.0,WeatherDisplay:10.37,2013-09-23 11:39:00,
2013-09-23 07:44:00,44.8,44.3,30.09,East,90,1.2,1.2,98,0.00,CLR,,0.00,0.0,WeatherDisplay:10.37,2013-09-23 11:44:00,
2013-09-23 07:49:00,45.9,45.3,30.09,East,90,2.4,2.4,98,0.00,CLR,,0.00,0.0,WeatherDisplay:10.37,2013-09-23 11:49:00,
2013-09-23 07:54:00,46.8,46.2,30.09,ESE,112,3.5,3.5,98,0.00,CLR,,0.00,0.0,WeatherDisplay:10.37,2013-09-23 11:54:00,
2013-09-23 07:59:00,47.5,46.7,30.09,East,90,1.2,1.2,97,0.00,CLR,,0.00,0.0,WeatherDisplay:10.37,2013-09-23 11:59:00,
2013-09-23 08:04:00,48.0,47.2,30.09,ENE,68,2.3,2.3,97,0.00,CLR,,0.00,0.0,WeatherDisplay:10.37,2013-09-23 12:04:00,
2013-09-23 08:09:00,49.3,48.2,30.09,ESE,112,2.9,2.9,96,0.00,CLR,,0.00,0.0,WeatherDisplay:10.37,2013-09-23 12:09:00,
2013-09-23 08:14:00,50.4,48.7,30.09,ENE,68,2.3,2.3,94,0.00,CLR,,0.00,0.0,WeatherDisplay:10.37,2013-09-23 12:14:00,
2013-09-23 08:19:00,50.9,48.9,30.09,East,90,3.5,3.5,93,0.00,CLR,,0.00,0.0,WeatherDisplay:10.37,2013-09-23 12:19:00,
2013-09-23 08:24:00,52.0,49.1,30.09,ESE,112,3.3,3.3,90,0.00,CLR,,0.00,0.0,WeatherDisplay:10.37,2013-09-23 12:24:00,
2013-09-23 08:29:00,52.5,48.5,30.09,ESE,112,2.9,2.9,86,0.00,CLR,,0.00,0.0,WeatherDisplay:10.37,2013-09-23 12:29:00,
2013-09-23 08:34:00,53.1,48.7,30.09,ESE,112,3.5,3.5,85,0.00,CLR,,0.00,0.0,WeatherDisplay:10.37,2013-09-23 12:34:00,
2013-09-23 08:39:00,53.4,48.4,30.09,ESE,112,4.5,4.5,83,0.00,CLR,,0.00,0.0,WeatherDisplay:10.37,2013-09-23 12:39:00,
2013-09-23 08:44:00,53.6,48.2,30.09,ENE,68,4.6,4.6,82,0.00,CLR,,0.00,0.0,WeatherDisplay:10.37,2013-09-23 12:44:00,
2013-09-23 08:49:00,54.3,48.6,30.09,ESE,112,4.6,4.6,81,0.00,CLR,,0.00,0.0,WeatherDisplay:10.37,2013-09-23 12:49:00,
2013-09-23 08:54:00,54.7,48.3,30.12,ESE,112,5.8,5.8,79,0.00,CLR,,0.00,0.0,WeatherDisplay:10.37,2013-09-23 12:54:00,
2013-09-23 08:59:00,55.8,49.3,30.12,ESE,112,3.6,3.6,79,0.00,CLR,,0.00,0.0,WeatherDisplay:10.37,2013-09-23 12:59:00,
2013-09-23 09:04:00,56.3,49.2,30.12,ESE,112,3.5,3.5,77,0.00,CLR,,0.00,0.0,WeatherDisplay:10.37,2013-09-23 13:04:00,
2013-09-23 09:09:00,56.7,48.5,30.12,ENE,68,4.9,4.9,74,0.00,CLR,,0.00,0.0,WeatherDisplay:10.37,2013-09-23 13:09:00,
2013-09-23 09:14:00,57.0,48.4,30.12,ESE,112,5.8,5.8,73,0.00,CLR,,0.00,0.0,WeatherDisplay:10.37,2013-09-23 13:14:00,
2013-09-23 09:19:00,57.7,48.4,30.12,ESE,112,3.5,3.5,71,0.00,CLR,,0.00,0.0,WeatherDisplay:10.37,2013-09-23 13:19:00,
2013-09-23 09:24:00,58.1,47.6,30.12,East,90,5.8,5.8,68,0.00,CLR,,0.00,0.0,WeatherDisplay:10.37,2013-09-23 13:24:00,
2013-09-23 09:29:00,58.3,47.4,30.12,ESE,112,5.8,5.8,67,0.00,CLR,,0.00,0.0,WeatherDisplay:10.37,2013-09-23 13:29:00,
2013-09-23 09:34:00,59.2,48.2,30.12,ESE,112,3.5,3.5,67,0.00,CLR,,0.00,0.0,WeatherDisplay:10.37,2013-09-23 13:34:00,
2013-09-23 09:39:00,60.3,48.4,30.12,SSE,158,4.6,4.6,65,0.00,CLR,,0.00,0.0,WeatherDisplay:10.37,2013-09-23 13:39:00,
2013-09-23 09:44:00,61.3,49.1,30.12,ESE,112,2.3,2.3,64,0.00,CLR,,0.00,0.0,WeatherDisplay:10.37,2013-09-23 13:44:00,
2013-09-23 09:49:00,61.5,47.1,30.12,ESE,112,3.5,3.5,59,0.00,CLR,,0.00,0.0,WeatherDisplay:10.37,2013-09-23 13:49:00,
2013-09-23 09:54:00,62.2,46.3,30.12,SSE,158,4.6,4.6,56,0.00,CLR,,0.00,0.0,WeatherDisplay:10.37,2013-09-23 13:54:00,
2013-09-23 09:59:00,62.4,46.0,30.12,ESE,112,2.6,2.6,55,0.00,CLR,,0.00,0.0,WeatherDisplay:10.37,2013-09-23 13:59:00,
2013-09-23 10:04:00,62.2,43.9,30.12,ENE,68,4.6,4.6,51,0.00,CLR,,0.00,0.0,WeatherDisplay:10.37,2013-09-23 14:04:00,
2013-09-23 10:09:00,61.9,42.5,30.12,ENE,68,5.8,5.8,49,0.00,CLR,,0.00,0.0,WeatherDisplay:10.37,2013-09-23 14:09:00,
2013-09-23 10:14:00,61.9,42.5,30.12,East,90,8.1,8.1,49,0.00,CLR,,0.00,100.0,WeatherDisplay:10.37,2013-09-23 14:14:00,
2013-09-23 10:19:00,61.9,42.0,30.12,ENE,68,6.0,6.0,48,0.00,CLR,,0.00,500.0,WeatherDisplay:10.37,2013-09-23 14:19:00,
2013-09-23 10:24:00,61.9,42.0,30.12,ENE,68,5.8,5.8,48,0.00,CLR,,0.00,100.0,WeatherDisplay:10.37,2013-09-23 14:24:00,
2013-09-23 10:29:00,60.8,40.4,30.12,ENE,68,8.1,8.1,47,0.00,CLR,,0.00,1200.0,WeatherDisplay:10.37,2013-09-23 14:29:00,
2013-09-23 10:34:00,62.2,42.3,30.12,ESE,112,5.8,5.8,48,0.00,CLR,,0.00,1100.0,WeatherDisplay:10.37,2013-09-23 14:34:00,
2013-09-23 10:39:00,62.8,41.7,30.12,ESE,112,8.1,8.1,46,0.00,CLR,,0.00,1300.0,WeatherDisplay:10.37,2013-09-23 14:39:00,
2013-09-23 10:44:00,63.9,43.2,30.12,ENE,68,4.6,4.6,47,0.00,CLR,,0.00,1600.0,WeatherDisplay:10.37,2013-09-23 14:44:00,
2013-09-23 10:50:00,61.7,40.7,30.12,ENE,68,6.9,6.9,46,0.00,CLR,,0.00,600.0,WeatherDisplay:10.37,2013-09-23 14:50:00,
2013-09-23 10:55:00,62.6,41.5,30.15,ENE,68,9.2,9.2,46,0.00,CLR,,0.00,600.0,WeatherDisplay:10.37,2013-09-23 14:55:00,
2013-09-23 11:00:00,63.3,42.2,30.15,ENE,68,9.2,9.2,46,0.00,CLR,,0.00,1300.0,WeatherDisplay:10.37,2013-09-23 15:00:00,
2013-09-23 11:05:00,63.1,42.0,30.15,ENE,68,6.9,6.9,46,0.00,CLR,,0.00,500.0,WeatherDisplay:10.37,2013-09-23 15:05:00,
2013-09-23 11:10:00,62.2,41.7,30.15,WNW,292,5.8,5.8,47,0.00,CLR,,0.00,1200.0,WeatherDisplay:10.37,2013-09-23 15:10:00,
2013-09-23 11:15:00,63.5,42.9,30.15,ENE,68,5.8,5.8,47,0.00,CLR,,0.00,800.0,WeatherDisplay:10.37,2013-09-23 15:15:00,
2013-09-23 11:20:00,63.1,42.6,30.15,NNE,22,3.5,3.5,47,0.00,CLR,,0.00,1500.0,WeatherDisplay:10.37,2013-09-23 15:20:00,
2013-09-23 11:25:00,64.9,43.7,30.15,NNW,338,5.8,5.8,46,0.00,CLR,,0.00,1000.0,WeatherDisplay:10.37,2013-09-23 15:25:00,
2013-09-23 11:30:00,64.4,42.6,30.15,ENE,68,5.8,5.8,45,0.00,CLR,,0.00,900.0,WeatherDisplay:10.37,2013-09-23 15:30:00,
2013-09-23 11:35:00,62.4,41.4,30.15,East,90,8.1,8.1,46,0.00,CLR,,0.00,500.0,WeatherDisplay:10.37,2013-09-23 15:35:00,
2013-09-23 11:40:00,63.5,41.8,30.15,ENE,68,5.8,6.0,45,0.00,CLR,,0.00,800.0,WeatherDisplay:10.37,2013-09-23 15:40:00,
2013-09-23 11:45:00,64.8,42.9,30.15,ENE,68,2.9,2.9,45,0.00,CLR,,0.00,1200.0,WeatherDisplay:10.37,2013-09-23 15:45:00,
2013-09-23 11:50:00,66.0,43.5,30.15,ESE,112,8.1,8.1,44,0.00,CLR,,0.00,1200.0,WeatherDisplay:10.37,2013-09-23 15:50:00,
2013-09-23 11:55:00,66.2,43.6,30.15,SSE,158,9.2,9.2,44,0.00,CLR,,0.00,1200.0,WeatherDisplay:10.37,2013-09-23 15:55:00,
2013-09-23 12:00:00,65.8,43.3,30.15,ENE,68,5.8,6.0,44,0.00,CLR,,0.00,1200.0,WeatherDisplay:10.37,2013-09-23 16:00:00,
2013-09-23 12:05:00,68.0,44.7,30.15,East,90,4.6,4.6,43,0.00,CLR,,0.00,1200.0,WeatherDisplay:10.37,2013-09-23 16:05:00,
2013-09-23 12:10:00,66.2,43.6,30.12,NNE,22,3.5,3.5,44,0.00,CLR,,0.00,1000.0,WeatherDisplay:10.37,2013-09-23 16:10:00,
2013-09-23 12:15:00,64.4,42.0,30.12,ESE,112,8.1,8.1,44,0.00,CLR,,0.00,1400.0,WeatherDisplay:10.37,2013-09-23 16:15:00,
2013-09-23 12:20:00,66.4,43.8,30.12,ENE,68,5.8,5.8,44,0.00,CLR,,0.00,1400.0,WeatherDisplay:10.37,2013-09-23 16:20:00,
2013-09-23 12:25:00,65.8,43.3,30.15,SE,135,5.8,5.8,44,0.00,CLR,,0.00,1600.0,WeatherDisplay:10.37,2013-09-23 16:25:00,
2013-09-23 12:30:00,66.9,44.3,30.15,SSW,202,8.1,8.1,44,0.00,CLR,,0.00,1600.0,WeatherDisplay:10.37,2013-09-23 16:30:00,
2013-09-23 12:35:00,66.0,43.5,30.15,ESE,112,2.9,2.9,44,0.00,CLR,,0.00,900.0,WeatherDisplay:10.37,2013-09-23 16:35:00,
2013-09-23 12:40:00,66.9,44.3,30.15,NNE,22,8.1,8.1,44,0.00,CLR,,0.00,900.0,WeatherDisplay:10.37,2013-09-23 16:40:00,
2013-09-23 12:45:00,66.4,43.2,30.15,ENE,68,9.2,9.2,43,0.00,CLR,,0.00,900.0,WeatherDisplay:10.37,2013-09-23 16:45:00,
2013-09-23 12:50:00,67.3,44.6,30.15,ENE,68,6.9,6.9,44,0.00,CLR,,0.00,900.0,WeatherDisplay:10.37,2013-09-23 16:50:00,
2013-09-23 12:55:00,67.8,45.1,30.15,East,95,3.0,10.0,44,0.00,CLR,,0.00,900.0,WeatherDisplay:10.37,2013-09-23 16:55:00,
2013-09-23 13:00:00,67.6,44.3,30.15,ENE,68,10.4,10.4,43,0.00,CLR,,0.00,1500.0,WeatherDisplay:10.37,2013-09-23 17:00:00,
2013-09-23 13:05:00,68.0,44.6,30.15,East,82,3.0,10.0,43,0.00,CLR,,0.00,1500.0,WeatherDisplay:10.37,2013-09-23 17:05:00,
2013-09-23 13:10:00,71.1,46.8,30.15,NNE,22,3.5,3.5,42,0.00,CLR,,0.00,1500.0,WeatherDisplay:10.37,2013-09-23 17:10:00,
2013-09-23 13:15:00,68.7,44.7,30.15,NNE,22,5.8,5.8,42,0.00,CLR,,0.00,1000.0,WeatherDisplay:10.37,2013-09-23 17:15:00,
2013-09-23 13:20:00,65.7,42.5,30.15,ESE,112,5.8,5.8,43,0.00,CLR,,0.00,1200.0,WeatherDisplay:10.37,2013-09-23 17:20:00,
2013-09-23 13:25:00,68.4,45.0,30.15,ESE,112,3.5,3.5,43,0.00,CLR,,0.00,1400.0,WeatherDisplay:10.37,2013-09-23 17:25:00,
2013-09-23 13:30:00,70.0,45.8,30.15,NNE,22,8.5,8.5,42,0.00,CLR,,0.00,1400.0,WeatherDisplay:10.37,2013-09-23 17:30:00,
2013-09-23 13:35:00,68.0,44.0,30.15,ESE,112,5.9,5.9,42,0.00,CLR,,0.00,1400.0,WeatherDisplay:10.37,2013-09-23 17:35:00,
2013-09-23 13:40:00,65.8,42.7,30.15,ESE,112,8.1,8.1,43,0.00,CLR,,0.00,1000.0,WeatherDisplay:10.37,2013-09-23 17:40:00,
2013-09-23 13:45:00,65.8,42.7,30.15,ENE,68,6.2,6.2,43,0.00,CLR,,0.00,1400.0,WeatherDisplay:10.37,2013-09-23 17:45:00,
2013-09-23 13:50:00,64.6,41.6,30.15,ENE,68,2.3,2.3,43,0.00,CLR,,0.00,1200.0,WeatherDisplay:10.37,2013-09-23 17:50:00,
2013-09-23 13:55:00,66.9,43.7,30.15,NNE,22,5.8,5.8,43,0.00,CLR,,0.00,1200.0,WeatherDisplay:10.37,2013-09-23 17:55:00,
2013-09-23 14:00:00,68.7,45.3,30.15,East,90,4.6,4.6,43,0.00,CLR,,0.00,1200.0,WeatherDisplay:10.37,2013-09-23 18:00:00,
2013-09-23 14:05:00,70.2,45.4,30.15,ENE,68,9.8,9.8,41,0.00,CLR,,0.00,1200.0,WeatherDisplay:10.37,2013-09-23 18:05:00,
2013-09-23 14:10:00,67.3,43.4,30.15,ESE,112,5.8,5.8,42,0.00,CLR,,0.00,1200.0,WeatherDisplay:10.37,2013-09-23 18:10:00,
2013-09-23 14:15:00,65.8,42.7,30.15,East,90,4.6,4.6,43,0.00,CLR,,0.00,1200.0,WeatherDisplay:10.37,2013-09-23 18:15:00,
2013-09-23 14:20:00,67.3,44.0,30.15,ESE,112,4.9,4.9,43,0.00,CLR,,0.00,1200.0,WeatherDisplay:10.37,2013-09-23 18:20:00,
2013-09-23 14:25:00,68.0,44.0,30.12,ESE,112,8.1,8.1,42,0.00,CLR,,0.00,1200.0,WeatherDisplay:10.37,2013-09-23 18:25:00,
2013-09-23 14:31:00,66.7,43.5,30.12,ESE,112,4.6,4.6,43,0.00,CLR,,0.00,1300.0,WeatherDisplay:10.37,2013-09-23 18:31:00,
2013-09-23 14:36:00,68.4,44.4,30.12,ESE,112,6.9,6.9,42,0.00,CLR,,0.00,1300.0,WeatherDisplay:10.37,2013-09-23 18:36:00,
2013-09-23 14:41:00,66.7,42.9,30.12,NNW,338,5.8,5.8,42,0.00,CLR,,0.00,1300.0,WeatherDisplay:10.37,2013-09-23 18:41:00,
2013-09-23 14:46:00,68.0,44.0,30.12,ENE,68,4.6,4.6,42,0.00,CLR,,0.00,1600.0,WeatherDisplay:10.37,2013-09-23 18:46:00,
2013-09-23 14:51:00,68.5,44.5,30.12,ESE,112,8.1,8.1,42,0.00,CLR,,0.00,1300.0,WeatherDisplay:10.37,2013-09-23 18:51:00,
2013-09-23 14:56:00,69.6,45.5,30.12,ESE,112,4.6,4.6,42,0.00,CLR,,0.00,1300.0,WeatherDisplay:10.37,2013-09-23 18:56:00,
2013-09-23 15:01:00,68.0,44.0,30.12,ENE,68,6.9,6.9,42,0.00,CLR,,0.00,1300.0,WeatherDisplay:10.37,2013-09-23 19:01:00,
2013-09-23 15:06:00,68.2,44.2,30.12,ENE,68,6.9,6.9,42,0.00,CLR,,0.00,1300.0,WeatherDisplay:10.37,2013-09-23 19:06:00,
2013-09-23 15:11:00,68.5,44.5,30.15,SE,135,5.8,5.8,42,0.00,CLR,,0.00,1300.0,WeatherDisplay:10.37,2013-09-23 19:11:00,
2013-09-23 15:16:00,67.6,43.7,30.15,ESE,112,8.1,8.1,42,0.00,CLR,,0.00,1300.0,WeatherDisplay:10.37,2013-09-23 19:16:00,
2013-09-23 15:21:00,67.3,44.0,30.15,East,90,6.4,6.4,43,0.00,CLR,,0.00,1300.0,WeatherDisplay:10.37,2013-09-23 19:21:00,
2013-09-23 15:26:00,68.9,45.5,30.12,East,90,2.6,3.3,43,0.00,CLR,,0.00,1100.0,WeatherDisplay:10.37,2013-09-23 19:26:00,
2013-09-23 15:31:00,66.9,43.7,30.12,ENE,68,4.6,4.6,43,0.00,CLR,,0.00,900.0,WeatherDisplay:10.37,2013-09-23 19:31:00,
2013-09-23 15:36:00,67.6,44.3,30.12,ESE,112,6.4,6.4,43,0.00,CLR,,0.00,1600.0,WeatherDisplay:10.37,2013-09-23 19:36:00,
2013-09-23 15:41:00,68.4,44.4,30.12,SSW,202,4.6,6.2,42,0.00,CLR,,0.00,1600.0,WeatherDisplay:10.37,2013-09-23 19:41:00,
2013-09-23 15:46:00,68.9,44.9,30.12,ENE,68,8.1,8.1,42,0.00,CLR,,0.00,1600.0,WeatherDisplay:10.37,2013-09-23 19:46:00,
2013-09-23 15:51:00,68.2,44.2,30.12,ENE,68,4.6,4.6,42,0.00,CLR,,0.00,1500.0,WeatherDisplay:10.37,2013-09-23 19:51:00,
2013-09-23 15:56:00,69.1,45.0,30.12,SSE,158,2.6,2.6,42,0.00,CLR,,0.00,1400.0,WeatherDisplay:10.37,2013-09-23 19:56:00,
2013-09-23 16:01:00,67.6,44.3,30.12,ENE,68,8.1,8.1,43,0.00,CLR,,0.00,1400.0,WeatherDisplay:10.37,2013-09-23 20:01:00,
2013-09-23 16:06:00,67.3,44.0,30.12,ENE,68,8.1,8.1,43,0.00,CLR,,0.00,1300.0,WeatherDisplay:10.37,2013-09-23 20:06:00,
2013-09-23 16:11:00,67.3,43.4,30.12,SSE,158,5.8,5.8,42,0.00,CLR,,0.00,1200.0,WeatherDisplay:10.37,2013-09-23 20:11:00,
2013-09-23 16:16:00,68.2,44.2,30.12,NNE,22,5.8,5.8,42,0.00,CLR,,0.00,1200.0,WeatherDisplay:10.37,2013-09-23 20:16:00,
2013-09-23 16:21:00,68.5,44.5,30.12,ESE,112,8.1,8.1,42,0.00,CLR,,0.00,1200.0,WeatherDisplay:10.37,2013-09-23 20:21:00,
2013-09-23 16:26:00,66.9,43.7,30.12,ESE,112,8.1,8.1,43,0.00,CLR,,0.00,1100.0,WeatherDisplay:10.37,2013-09-23 20:26:00,
2013-09-23 16:31:00,64.9,42.5,30.12,ESE,112,9.2,9.2,44,0.00,CLR,,0.00,700.0,WeatherDisplay:10.37,2013-09-23 20:31:00,
2013-09-23 16:36:00,65.7,43.1,30.12,ENE,68,4.6,4.6,44,0.00,CLR,,0.00,1000.0,WeatherDisplay:10.37,2013-09-23 20:36:00,
2013-09-23 16:41:00,66.0,43.5,30.12,ENE,68,9.2,9.2,44,0.00,CLR,,0.00,900.0,WeatherDisplay:10.37,2013-09-23 20:41:00,
2013-09-23 16:46:00,66.0,43.5,30.12,SSW,202,5.8,5.8,44,0.00,CLR,,0.00,800.0,WeatherDisplay:10.37,2013-09-23 20:46:00,
2013-09-23 16:51:00,66.7,43.5,30.12,NNE,22,3.6,3.6,43,0.00,CLR,,0.00,700.0,WeatherDisplay:10.37,2013-09-23 20:51:00,
2013-09-23 16:56:00,66.6,43.4,30.12,WSW,248,5.8,5.8,43,0.00,CLR,,0.00,600.0,WeatherDisplay:10.37,2013-09-23 20:56:00,
2013-09-23 17:01:00,66.6,43.4,30.12,ENE,68,9.0,9.0,43,0.00,FEW,,0.00,600.0,WeatherDisplay:10.37,2013-09-23 21:01:00,
2013-09-23 17:06:00,66.2,43.0,30.12,ESE,112,2.4,0.0,43,0.00,SCT,,0.00,500.0,WeatherDisplay:10.37,2013-09-23 21:06:00,
2013-09-23 17:11:00,65.8,43.3,30.12,ESE,112,5.8,5.8,44,0.00,SCT,,0.00,500.0,WeatherDisplay:10.37,2013-09-23 21:11:00,
2013-09-23 17:16:00,66.2,43.6,30.12,ESE,112,4.6,4.6,44,0.00,SCT,,0.00,500.0,WeatherDisplay:10.37,2013-09-23 21:16:00,
2013-09-23 17:21:00,64.9,42.5,30.12,ESE,112,8.1,8.1,44,0.00,BKN,,0.00,400.0,WeatherDisplay:10.37,2013-09-23 21:21:00,
2013-09-23 17:26:00,64.0,41.7,30.12,East,90,5.8,5.8,44,0.00,BKN,,0.00,400.0,WeatherDisplay:10.37,2013-09-23 21:26:00,
2013-09-23 17:31:00,65.3,42.8,30.12,NNW,338,3.5,3.5,44,0.00,BKN,,0.00,400.0,WeatherDisplay:10.37,2013-09-23 21:31:00,
2013-09-23 17:36:00,65.7,43.1,30.12,ENE,68,4.6,4.6,44,0.00,BKN,,0.00,300.0,WeatherDisplay:10.37,2013-09-23 21:36:00,
2013-09-23 17:42:00,65.3,42.8,30.12,ESE,112,5.4,5.4,44,0.00,BKN,,0.00,300.0,WeatherDisplay:10.37,2013-09-23 21:42:00,
2013-09-23 17:47:00,65.5,43.0,30.12,East,90,4.0,4.0,44,0.00,BKN,,0.00,300.0,WeatherDisplay:10.37,2013-09-23 21:47:00,
2013-09-23 17:52:00,64.6,42.2,30.12,ENE,68,5.8,5.8,44,0.00,BKN,,0.00,200.0,WeatherDisplay:10.37,2013-09-23 21:52:00,
2013-09-23 17:57:00,63.7,41.9,30.12,ESE,112,6.9,6.9,45,0.00,BKN,,0.00,200.0,WeatherDisplay:10.37,2013-09-23 21:57:00,
2013-09-23 18:02:00,63.1,41.4,30.12,ENE,68,6.9,6.9,45,0.00,BKN,,0.00,200.0,WeatherDisplay:10.37,2013-09-23 22:02:00,
2013-09-23 18:07:00,63.3,42.2,30.12,SSW,202,6.9,6.9,46,0.00,BKN,,0.00,200.0,WeatherDisplay:10.37,2013-09-23 22:07:00,
2013-09-23 18:12:00,63.3,42.2,30.12,ESE,112,9.7,9.7,46,0.00,BKN,,0.00,100.0,WeatherDisplay:10.37,2013-09-23 22:12:00,
2013-09-23 18:17:00,62.6,41.5,30.12,ESE,112,6.9,6.9,46,0.00,BKN,,0.00,100.0,WeatherDisplay:10.37,2013-09-23 22:17:00,
2013-09-23 18:22:00,62.6,41.5,30.12,ESE,112,3.5,3.5,46,0.00,BKN,,0.00,100.0,WeatherDisplay:10.37,2013-09-23 22:22:00,
2013-09-23 18:27:00,62.2,41.7,30.12,ENE,68,8.1,8.1,47,0.00,CLR,,0.00,0.0,WeatherDisplay:10.37,2013-09-23 22:27:00,
2013-09-23 18:32:00,61.9,41.4,30.12,ENE,68,6.0,6.0,47,0.00,CLR,,0.00,0.0,WeatherDisplay:10.37,2013-09-23 22:32:00,
2013-09-23 18:37:00,61.5,41.6,30.12,SSE,158,4.9,4.9,48,0.00,CLR,,0.00,0.0,WeatherDisplay:10.37,2013-09-23 22:37:00,
2013-09-23 18:42:00,61.0,41.7,30.12,ESE,112,4.6,4.6,49,0.00,CLR,,0.00,0.0,WeatherDisplay:10.37,2013-09-23 22:42:00,
2013-09-23 18:47:00,60.6,41.9,30.12,ESE,112,5.8,5.8,50,0.00,CLR,,0.00,0.0,WeatherDisplay:10.37,2013-09-23 22:47:00,
2013-09-23 18:52:00,60.3,42.0,30.12,ESE,112,4.6,4.6,51,0.00,CLR,,0.00,0.0,WeatherDisplay:10.37,2013-09-23 22:52:00,
2013-09-23 18:57:00,60.1,42.4,30.12,ENE,68,4.6,4.6,52,0.00,CLR,,0.00,0.0,WeatherDisplay:10.37,2013-09-23 22:57:00,
2013-09-23 19:02:00,59.5,41.9,30.12,ENE,68,4.6,4.6,52,0.00,CLR,,0.00,0.0,WeatherDisplay:10.37,2013-09-23 23:02:00,
2013-09-23 19:07:00,59.0,41.9,30.12,ENE,68,4.6,4.6,53,0.00,CLR,,0.00,0.0,WeatherDisplay:10.37,2013-09-23 23:07:00,
2013-09-23 19:12:00,58.5,42.3,30.12,ENE,68,5.8,5.8,55,0.00,CLR,,0.00,0.0,WeatherDisplay:10.37,2013-09-23 23:12:00,
2013-09-23 19:17:00,57.9,42.3,30.12,East,90,2.9,2.9,56,0.00,CLR,,0.00,0.0,WeatherDisplay:10.37,2013-09-23 23:17:00,
2013-09-23 19:22:00,57.2,42.1,30.12,ENE,68,2.6,2.6,57,0.00,CLR,,0.00,0.0,WeatherDisplay:10.37,2013-09-23 23:22:00,
2013-09-23 19:27:00,56.7,42.0,30.12,ENE,68,2.3,2.3,58,0.00,CLR,,0.00,0.0,WeatherDisplay:10.37,2013-09-23 23:27:00,
2013-09-23 19:32:00,55.6,41.9,30.12,ESE,112,1.2,0.0,60,0.00,CLR,,0.00,0.0,WeatherDisplay:10.37,2013-09-23 23:32:00,
2013-09-23 19:37:00,54.7,42.3,30.12,ESE,112,0.0,0.0,63,0.00,CLR,,0.00,0.0,WeatherDisplay:10.37,2013-09-23 23:37:00,
2013-09-23 19:42:00,54.1,42.6,30.12,ESE,112,0.0,0.0,65,0.00,CLR,,0.00,0.0,WeatherDisplay:10.37,2013-09-23 23:42:00,
2013-09-23 19:47:00,53.4,42.3,30.12,ESE,112,0.0,0.0,66,0.00,CLR,,0.00,0.0,WeatherDisplay:10.37,2013-09-23 23:47:00,
2013-09-23 19:52:00,53.1,43.5,30.12,ESE,112,2.3,2.3,70,0.00,CLR,,0.00,0.0,WeatherDisplay:10.37,2013-09-23 23:52:00,
2013-09-23 19:57:00,52.5,43.0,30.12,ESE,112,0.0,0.0,70,0.00,CLR,,0.00,0.0,WeatherDisplay:10.37,2013-09-23 23:57:00,
2013-09-23 20:02:00,52.0,42.9,30.12,ESE,112,0.0,0.0,71,0.00,CLR,,0.00,0.0,WeatherDisplay:10.37,2013-09-24 00:02:00,
2013-09-23 20:07:00,51.4,42.3,30.09,ESE,112,0.0,0.0,71,0.00,CLR,,0.00,0.0,WeatherDisplay:10.37,2013-09-24 00:07:00,
2013-09-23 20:12:00,51.3,42.5,30.09,ESE,112,0.0,0.0,72,0.00,CLR,,0.00,0.0,WeatherDisplay:10.37,2013-09-24 00:12:00,
2013-09-23 20:17:00,50.7,42.4,30.09,ESE,112,0.0,0.0,73,0.00,CLR,,0.00,0.0,WeatherDisplay:10.37,2013-09-24 00:17:00,
2013-09-23 20:22:00,50.2,42.2,30.09,ESE,112,0.0,0.0,74,0.00,CLR,,0.00,0.0,WeatherDisplay:10.37,2013-09-24 00:22:00,
2013-09-23 20:27:00,50.0,43.1,30.12,ESE,112,1.2,1.2,77,0.00,CLR,,0.00,0.0,WeatherDisplay:10.37,2013-09-24 00:27:00,
2013-09-23 20:32:00,49.8,42.6,30.12,ESE,112,0.0,0.0,76,0.00,CLR,,0.00,0.0,WeatherDisplay:10.37,2013-09-24 00:32:00,
2013-09-23 20:37:00,49.3,42.4,30.09,ENE,68,0.0,0.0,77,0.00,CLR,,0.00,0.0,WeatherDisplay:10.37,2013-09-24 00:37:00,
2013-09-23 20:42:00,49.1,42.2,30.09,ENE,68,0.0,0.0,77,0.00,CLR,,0.00,0.0,WeatherDisplay:10.37,2013-09-24 00:42:00,
2013-09-23 20:47:00,48.9,42.4,30.09,ESE,112,0.0,0.0,78,0.00,CLR,,0.00,0.0,WeatherDisplay:10.37,2013-09-24 00:47:00,
2013-09-23 20:52:00,48.7,42.8,30.09,East,90,1.2,0.0,80,0.00,CLR,,0.00,0.0,WeatherDisplay:10.37,2013-09-24 00:52:00,
2013-09-23 20:58:00,48.6,43.0,30.09,ENE,68,0.0,0.0,81,0.00,CLR,,0.00,0.0,WeatherDisplay:10.37,2013-09-24 00:58:00,
2013-09-23 21:03:00,48.6,43.9,30.09,ESE,112,1.2,1.2,84,0.00,CLR,,0.00,0.0,WeatherDisplay:10.37,2013-09-24 01:03:00,
2013-09-23 21:08:00,48.6,43.3,30.09,ESE,112,0.0,0.0,82,0.00,CLR,,0.00,0.0,WeatherDisplay:10.37,2013-09-24 01:08:00,
2013-09-23 21:13:00,48.6,43.9,30.09,East,90,0.0,0.0,84,0.00,CLR,,0.00,0.0,WeatherDisplay:10.37,2013-09-24 01:13:00,
2013-09-23 21:18:00,48.4,44.1,30.09,East,90,0.0,0.0,85,0.00,CLR,,0.00,0.0,WeatherDisplay:10.37,2013-09-24 01:18:00,
2013-09-23 21:23:00,48.0,43.4,30.12,East,90,0.0,0.0,84,0.00,CLR,,0.00,0.0,WeatherDisplay:10.37,2013-09-24 01:23:00,
2013-09-23 21:28:00,47.7,43.4,30.12,East,90,0.0,0.0,85,0.00,CLR,,0.00,0.0,WeatherDisplay:10.37,2013-09-24 01:28:00,
2013-09-23 21:33:00,47.3,43.0,30.12,East,90,0.0,0.0,85,0.00,CLR,,0.00,0.0,WeatherDisplay:10.37,2013-09-24 01:33:00,
2013-09-23 21:38:00,47.1,42.8,30.12,East,90,0.0,0.0,85,0.00,CLR,,0.00,0.0,WeatherDisplay:10.37,2013-09-24 01:38:00,
2013-09-23 21:43:00,46.9,42.7,30.12,East,90,0.0,0.0,85,0.00,CLR,,0.00,0.0,WeatherDisplay:10.37,2013-09-24 01:43:00,
2013-09-23 21:48:00,46.8,42.8,30.12,East,90,0.0,0.0,86,0.00,CLR,,0.00,0.0,WeatherDisplay:10.37,2013-09-24 01:48:00,
2013-09-23 21:53:00,46.8,43.4,30.12,ENE,68,0.0,0.0,88,0.00,CLR,,0.00,0.0,WeatherDisplay:10.37,2013-09-24 01:53:00,
2013-09-23 21:58:00,46.6,42.9,30.12,ENE,68,0.0,0.0,87,0.00,CLR,,0.00,0.0,WeatherDisplay:10.37,2013-09-24 01:58:00,
2013-09-23 22:03:00,46.4,42.7,30.12,ENE,68,1.2,0.0,87,0.00,CLR,,0.00,0.0,WeatherDisplay:10.37,2013-09-24 02:03:00,
2013-09-23 22:08:00,46.6,43.2,30.12,ESE,112,0.0,0.0,88,0.00,CLR,,0.00,0.0,WeatherDisplay:10.37,2013-09-24 02:08:00,
2013-09-23 22:13:00,46.6,43.2,30.12,East,90,0.9,0.0,88,0.00,CLR,,0.00,0.0,WeatherDisplay:10.37,2013-09-24 02:13:00,
2013-09-23 22:18:00,46.6,43.5,30.12,East,90,0.0,0.0,89,0.00,CLR,,0.00,0.0,WeatherDisplay:10.37,2013-09-24 02:18:00,
2013-09-23 22:23:00,46.2,43.2,30.12,East,90,0.0,0.0,89,0.00,CLR,,0.00,0.0,WeatherDisplay:10.37,2013-09-24 02:23:00,
2013-09-23 22:28:00,45.9,42.5,30.12,East,90,0.0,0.0,88,0.00,CLR,,0.00,0.0,WeatherDisplay:10.37,2013-09-24 02:28:00,
2013-09-23 22:33:00,45.3,42.0,30.12,East,90,0.0,0.0,88,0.00,CLR,,0.00,0.0,WeatherDisplay:10.37,2013-09-24 02:33:00,
2013-09-23 22:38:00,45.1,42.1,30.12,East,90,0.0,0.0,89,0.00,CLR,,0.00,0.0,WeatherDisplay:10.37,2013-09-24 02:38:00,
2013-09-23 22:43:00,45.1,42.1,30.12,ESE,112,0.0,0.0,89,0.00,CLR,,0.00,0.0,WeatherDisplay:10.37,2013-09-24 02:43:00,
2013-09-23 22:48:00,45.0,42.2,30.12,ESE,112,0.0,0.0,90,0.00,CLR,,0.00,0.0,WeatherDisplay:10.37,2013-09-24 02:48:00,
2013-09-23 22:53:00,44.8,42.0,30.12,ESE,112,0.0,0.0,90,0.00,CLR,,0.00,0.0,WeatherDisplay:10.37,2013-09-24 02:53:00,
2013-09-23 22:58:00,44.8,42.0,30.12,ESE,112,0.0,0.0,90,0.00,CLR,,0.00,0.0,WeatherDisplay:10.37,2013-09-24 02:58:00,
2013-09-23 23:03:00,44.8,42.3,30.12,ESE,112,0.0,0.0,91,0.00,CLR,,0.00,0.0,WeatherDisplay:10.37,2013-09-24 03:03:00,
2013-09-23 23:08:00,44.6,42.1,30.12,ESE,112,0.0,0.0,91,0.00,CLR,,0.00,0.0,WeatherDisplay:10.37,2013-09-24 03:08:00,
2013-09-23 23:13:00,44.6,42.1,30.12,ENE,68,0.0,0.0,91,0.00,CLR,,0.00,0.0,WeatherDisplay:10.37,2013-09-24 03:13:00,
2013-09-23 23:18:00,44.4,42.0,30.12,ENE,68,0.0,0.0,91,0.00,CLR,,0.00,0.0,WeatherDisplay:10.37,2013-09-24 03:18:00,
2013-09-23 23:23:00,44.4,42.2,30.12,ENE,68,0.0,0.0,92,0.00,CLR,,0.00,0.0,WeatherDisplay:10.37,2013-09-24 03:23:00,
2013-09-23 23:28:00,44.2,42.1,30.12,ENE,68,0.0,0.0,92,0.00,CLR,,0.00,0.0,WeatherDisplay:10.37,2013-09-24 03:28:00,
2013-09-23 23:33:00,43.7,41.2,30.12,ENE,68,0.0,0.0,91,0.00,CLR,,0.00,0.0,WeatherDisplay:10.37,2013-09-24 03:33:00,
2013-09-23 23:38:00,43.5,41.1,30.12,ENE,68,0.0,0.0,91,0.00,CLR,,0.00,0.0,WeatherDisplay:10.37,2013-09-24 03:38:00,
2013-09-23 23:43:00,43.5,41.4,30.12,ENE,68,0.0,0.0,92,0.00,CLR,,0.00,0.0,WeatherDisplay:10.37,2013-09-24 03:43:00,
2013-09-23 23:48:00,43.5,41.4,30.12,ENE,68,0.0,0.0,92,0.00,CLR,,0.00,0.0,WeatherDisplay:10.37,2013-09-24 03:48:00,
2013-09-23 23:53:00,43.5,41.6,30.12,ENE,68,0.0,0.0,93,0.00,CLR,,0.00,0.0,WeatherDisplay:10.37,2013-09-24 03:53:00,
2013-09-23 23:58:00,43.3,41.5,30.12,ENE,68,0.0,0.0,93,0.00,CLR,,0.00,0.0,WeatherDisplay:10.37,2013-09-24 03:58:00,